createdAt,value
2023-05-16T00:00:40.198Z,36.53
2023-05-16T00:01:40.269Z,36.50
2023-05-16T00:02:40.397Z,36.42
2023-05-16T00:03:40.312Z,36.37
2023-05-16T00:04:40.356Z,36.40
2023-05-16T00:05:40.235Z,36.33
2023-05-16T00:06:40.202Z,36.33
2023-05-16T00:07:40.189Z,36.28
2023-05-16T00:08:40.153Z,36.27
2023-05-16T00:09:40.171Z,36.30
2023-05-16T00:10:40.177Z,36.31
2023-05-16T00:11:40.156Z,36.34
2023-05-16T00:12:40.162Z,36.38
2023-05-16T00:13:40.159Z,36.42
2023-05-16T00:14:40.167Z,36.42
2023-05-16T00:15:40.167Z,36.43
2023-05-16T00:16:40.214Z,36.42
2023-05-16T00:17:40.202Z,36.52
2023-05-16T00:18:40.186Z,36.46
2023-05-16T00:19:40.123Z,36.56
2023-05-16T00:20:40.135Z,36.53
2023-05-16T00:21:40.109Z,36.52
2023-05-16T00:22:40.101Z,36.53
2023-05-16T00:23:40.096Z,36.52
2023-05-16T00:24:40.147Z,36.54
2023-05-16T00:25:40.141Z,36.53
2023-05-16T00:26:40.101Z,36.50
2023-05-16T00:27:40.127Z,36.55
2023-05-16T00:28:40.120Z,36.59
2023-05-16T00:29:40.129Z,36.63
2023-05-16T00:30:40.099Z,36.65
2023-05-16T00:31:40.140Z,36.67
2023-05-16T00:32:40.189Z,36.65
2023-05-16T00:33:40.119Z,36.69
2023-05-16T00:34:40.175Z,36.69
2023-05-16T00:35:40.132Z,36.70
2023-05-16T00:36:40.104Z,36.70
2023-05-16T00:37:40.143Z,36.71
2023-05-16T00:38:40.119Z,36.71
2023-05-16T00:39:40.109Z,36.69
2023-05-16T00:40:40.093Z,36.76
2023-05-16T00:41:40.122Z,36.71
2023-05-16T00:42:40.128Z,36.74
2023-05-16T00:43:40.118Z,36.80
2023-05-16T00:44:40.089Z,36.82
2023-05-16T00:45:40.149Z,36.85
2023-05-16T00:46:40.210Z,36.96
2023-05-16T00:47:40.139Z,36.99
2023-05-16T00:48:40.132Z,37.04
2023-05-16T00:49:40.163Z,37.04
2023-05-16T00:50:40.136Z,37.00
2023-05-16T00:51:40.123Z,36.94
2023-05-16T00:52:40.138Z,36.94
2023-05-16T00:53:40.156Z,36.92
2023-05-16T00:54:40.168Z,36.92
2023-05-16T00:55:40.183Z,36.96
2023-05-16T00:56:40.158Z,36.93
2023-05-16T00:57:40.143Z,36.94
2023-05-16T00:58:40.167Z,36.96
2023-05-16T00:59:40.206Z,36.96
2023-05-16T01:00:40.161Z,36.96
2023-05-16T01:01:40.204Z,36.93
2023-05-16T01:02:40.273Z,36.93
2023-05-16T01:03:40.291Z,36.96
2023-05-16T01:04:40.189Z,37.01
2023-05-16T01:05:40.236Z,37.07
2023-05-16T01:06:40.202Z,37.14
2023-05-16T01:07:40.228Z,37.19
2023-05-16T01:08:40.234Z,37.21
2023-05-16T01:09:40.239Z,37.29
2023-05-16T01:10:40.202Z,37.30
2023-05-16T01:11:40.237Z,37.34
2023-05-16T01:12:40.239Z,37.40
2023-05-16T01:13:40.257Z,37.40
2023-05-16T01:14:40.257Z,37.44
2023-05-16T01:15:40.312Z,37.48
2023-05-16T01:16:40.568Z,37.49
2023-05-16T01:17:40.306Z,37.54
2023-05-16T01:18:40.310Z,37.57
2023-05-16T01:19:40.305Z,37.58
2023-05-16T01:20:40.305Z,37.57
2023-05-16T01:21:40.313Z,37.55
2023-05-16T01:22:40.312Z,37.51
2023-05-16T01:23:40.318Z,37.46
2023-05-16T01:24:40.315Z,37.50
2023-05-16T01:25:40.335Z,37.49
2023-05-16T01:26:40.339Z,37.47
2023-05-16T01:27:40.353Z,37.43
2023-05-16T01:28:40.345Z,37.41
2023-05-16T01:29:40.340Z,37.39
2023-05-16T01:30:40.371Z,37.38
2023-05-16T01:31:40.411Z,37.39
2023-05-16T01:32:40.407Z,37.41
2023-05-16T01:33:40.357Z,37.42
2023-05-16T01:34:40.408Z,37.39
2023-05-16T01:35:40.441Z,37.40
2023-05-16T01:36:40.402Z,37.44
2023-05-16T01:37:40.407Z,37.43
2023-05-16T01:38:40.393Z,37.42
2023-05-16T01:39:40.433Z,37.46
2023-05-16T01:40:40.445Z,37.50
2023-05-16T01:41:40.417Z,37.52
2023-05-16T01:42:40.433Z,37.55
2023-05-16T01:43:40.502Z,37.57
2023-05-16T01:44:40.498Z,37.61
2023-05-16T01:45:40.507Z,37.63
2023-05-16T01:46:40.549Z,37.65
2023-05-16T01:47:40.601Z,37.70
2023-05-16T01:48:40.537Z,37.70
2023-05-16T01:49:40.561Z,37.73
2023-05-16T01:50:40.570Z,37.76
2023-05-16T01:51:40.602Z,37.75
2023-05-16T01:52:40.574Z,37.77
2023-05-16T01:53:40.643Z,37.79
2023-05-16T01:54:40.710Z,37.81
2023-05-16T01:55:40.644Z,37.84
2023-05-16T01:56:40.692Z,37.81
2023-05-16T01:57:40.685Z,37.84
2023-05-16T01:58:40.962Z,37.86
2023-05-16T01:59:40.713Z,37.87
2023-05-16T02:00:40.737Z,37.90
2023-05-16T02:01:40.819Z,37.90
2023-05-16T02:02:40.801Z,37.95
2023-05-16T02:03:40.902Z,37.96
2023-05-16T02:04:40.803Z,37.93
2023-05-16T02:05:40.837Z,37.96
2023-05-16T02:06:40.843Z,37.98
2023-05-16T02:07:40.849Z,37.98
2023-05-16T02:08:40.909Z,37.96
2023-05-16T02:09:40.902Z,37.95
2023-05-16T02:10:40.951Z,37.96
2023-05-16T02:11:40.970Z,37.99
2023-05-16T02:12:40.961Z,38.02
2023-05-16T02:13:40.971Z,38.05
2023-05-16T02:14:41.007Z,38.07
2023-05-16T02:15:41.027Z,38.07
2023-05-16T02:16:41.090Z,38.10
2023-05-16T02:17:41.097Z,38.07
2023-05-16T02:18:41.124Z,38.13
2023-05-16T02:19:41.126Z,38.13
2023-05-16T02:20:41.127Z,38.14
2023-05-16T02:21:41.150Z,38.15
2023-05-16T02:22:41.167Z,38.17
2023-05-16T02:23:41.180Z,38.19
2023-05-16T02:24:41.230Z,38.20
2023-05-16T02:25:41.253Z,38.20
2023-05-16T02:26:41.272Z,38.23
2023-05-16T02:27:41.296Z,38.19
2023-05-16T02:28:41.332Z,38.21
2023-05-16T02:29:41.347Z,38.19
2023-05-16T02:30:41.444Z,38.19
2023-05-16T02:31:41.534Z,38.22
2023-05-16T02:32:41.480Z,38.24
2023-05-16T02:33:41.456Z,38.24
2023-05-16T02:34:41.481Z,38.27
2023-05-16T02:35:41.490Z,38.26
2023-05-16T02:36:41.521Z,38.32
2023-05-16T02:37:41.563Z,38.32
2023-05-16T02:38:41.585Z,38.38
2023-05-16T02:39:41.596Z,38.43
2023-05-16T02:40:41.621Z,38.41
2023-05-16T02:41:41.632Z,38.51
2023-05-16T02:42:41.767Z,38.51
2023-05-16T02:43:41.684Z,38.52
2023-05-16T02:44:41.719Z,38.56
2023-05-16T02:45:41.743Z,38.55
2023-05-16T02:46:41.938Z,38.56
2023-05-16T02:47:41.825Z,38.60
2023-05-16T02:48:41.805Z,38.64
2023-05-16T02:49:41.826Z,38.64
2023-05-16T02:50:41.878Z,38.68
2023-05-16T02:51:41.879Z,38.73
2023-05-16T02:52:41.899Z,38.71
2023-05-16T02:53:41.952Z,38.73
2023-05-16T02:54:41.942Z,38.78
2023-05-16T02:55:42.015Z,38.79
2023-05-16T02:56:42.009Z,38.78
2023-05-16T02:57:42.040Z,38.79
2023-05-16T02:58:42.066Z,38.82
2023-05-16T02:59:42.092Z,38.88
2023-05-16T03:00:42.093Z,38.88
2023-05-16T03:01:42.182Z,38.96
2023-05-16T03:02:42.232Z,38.99
2023-05-16T03:03:42.270Z,39.07
2023-05-16T03:04:42.209Z,39.05
2023-05-16T03:05:42.247Z,39.11
2023-05-16T03:06:42.286Z,39.19
2023-05-16T03:07:42.358Z,39.17
2023-05-16T03:08:42.326Z,39.17
2023-05-16T03:09:42.350Z,39.14
2023-05-16T03:10:42.396Z,39.12
2023-05-16T03:11:42.426Z,39.13
2023-05-16T03:12:42.446Z,39.14
2023-05-16T03:13:42.491Z,39.10
2023-05-16T03:14:42.514Z,39.10
2023-05-16T03:15:42.553Z,39.14
2023-05-16T03:16:42.677Z,39.14
2023-05-16T03:17:42.658Z,39.15
2023-05-16T03:18:42.690Z,39.15
2023-05-16T03:19:42.686Z,39.16
2023-05-16T03:20:42.709Z,39.17
2023-05-16T03:21:42.742Z,39.20
2023-05-16T03:22:42.775Z,39.18
2023-05-16T03:23:42.832Z,39.16
2023-05-16T03:24:42.916Z,39.20
2023-05-16T03:25:42.898Z,39.16
2023-05-16T03:26:42.936Z,39.14
2023-05-16T03:27:42.965Z,39.16
2023-05-16T03:28:43.009Z,39.16
2023-05-16T03:29:43.030Z,39.13
2023-05-16T03:30:43.071Z,39.14
2023-05-16T03:31:43.121Z,39.13
2023-05-16T03:32:43.179Z,39.16
2023-05-16T03:33:43.153Z,39.12
2023-05-16T03:34:43.183Z,39.14
2023-05-16T03:35:43.245Z,39.11
2023-05-16T03:36:43.300Z,39.14
2023-05-16T03:37:43.305Z,39.13
2023-05-16T03:38:43.357Z,39.13
2023-05-16T03:39:43.359Z,39.08
2023-05-16T03:40:43.405Z,39.08
2023-05-16T03:41:43.450Z,39.08
2023-05-16T03:42:43.488Z,39.07
2023-05-16T03:43:43.520Z,39.12
2023-05-16T03:44:43.560Z,39.12
2023-05-16T03:45:43.666Z,39.07
2023-05-16T03:46:43.683Z,39.09
2023-05-16T03:47:43.742Z,39.14
2023-05-16T03:48:43.725Z,39.18
2023-05-16T03:49:43.759Z,39.18
2023-05-16T03:50:43.780Z,39.19
2023-05-16T03:51:43.814Z,39.28
2023-05-16T03:52:43.852Z,39.28
2023-05-16T03:53:43.880Z,39.28
2023-05-16T03:54:43.944Z,39.30
2023-05-16T03:55:43.956Z,39.34
2023-05-16T03:56:43.999Z,39.34
2023-05-16T03:57:44.043Z,39.38
2023-05-16T03:58:44.109Z,39.42
2023-05-16T03:59:44.122Z,39.45
2023-05-16T04:00:44.145Z,39.45
2023-05-16T04:01:44.215Z,39.51
2023-05-16T04:02:44.388Z,39.49
2023-05-16T04:03:44.279Z,39.58
2023-05-16T04:04:44.305Z,39.63
2023-05-16T04:05:44.409Z,39.65
2023-05-16T04:06:44.405Z,39.72
2023-05-16T04:07:44.436Z,39.74
2023-05-16T04:08:44.485Z,39.76
2023-05-16T04:09:44.510Z,39.74
2023-05-16T04:10:44.563Z,39.79
2023-05-16T04:11:44.929Z,39.83
2023-05-16T04:12:44.618Z,39.79
2023-05-16T04:13:44.816Z,39.85
2023-05-16T04:14:44.691Z,39.90
2023-05-16T04:15:44.743Z,39.94
2023-05-16T04:16:44.863Z,39.96
2023-05-16T04:17:44.905Z,39.90
2023-05-16T04:18:44.871Z,39.92
2023-05-16T04:19:44.941Z,39.90
2023-05-16T04:20:44.949Z,39.89
2023-05-16T04:21:45.017Z,39.86
2023-05-16T04:22:45.057Z,39.78
2023-05-16T04:23:45.061Z,39.79
2023-05-16T04:24:45.120Z,39.79
2023-05-16T04:25:45.152Z,39.76
2023-05-16T04:26:45.190Z,39.67
2023-05-16T04:27:45.245Z,39.69
2023-05-16T04:28:45.300Z,39.70
2023-05-16T04:29:45.335Z,39.65
2023-05-16T04:30:45.389Z,39.69
2023-05-16T04:31:45.444Z,39.70
2023-05-16T04:32:45.480Z,39.69
2023-05-16T04:33:45.540Z,39.65
2023-05-16T04:34:45.588Z,39.72
2023-05-16T04:35:45.650Z,39.67
2023-05-16T04:36:45.676Z,39.72
2023-05-16T04:37:45.699Z,39.73
2023-05-16T04:38:45.755Z,39.74
2023-05-16T04:39:45.825Z,39.78
2023-05-16T04:40:45.868Z,39.78
2023-05-16T04:41:45.895Z,39.82
2023-05-16T04:42:45.942Z,39.84
2023-05-16T04:43:45.982Z,39.91
2023-05-16T04:44:46.035Z,39.91
2023-05-16T04:45:46.067Z,39.91
2023-05-16T04:46:46.280Z,39.99
2023-05-16T04:47:46.260Z,39.97
2023-05-16T04:48:46.206Z,40.00
2023-05-16T04:49:46.262Z,40.05
2023-05-16T04:50:46.284Z,40.08
2023-05-16T04:51:46.337Z,40.08
2023-05-16T04:52:46.387Z,40.10
2023-05-16T04:53:46.415Z,40.06
2023-05-16T04:54:46.483Z,40.10
2023-05-16T04:55:46.549Z,40.04
2023-05-16T04:56:46.559Z,39.97
2023-05-16T04:57:46.595Z,39.98
2023-05-16T04:58:46.620Z,40.05
2023-05-16T04:59:46.652Z,40.00
2023-05-16T05:00:46.704Z,40.03
2023-05-16T05:01:46.776Z,40.02
2023-05-16T05:02:46.840Z,40.03
2023-05-16T05:03:48.300Z,40.04
2023-05-16T05:04:46.919Z,40.04
2023-05-16T05:05:46.852Z,40.07
2023-05-16T05:06:46.913Z,40.07
2023-05-16T05:07:46.955Z,40.04
2023-05-16T05:08:46.975Z,40.08
2023-05-16T05:09:47.051Z,40.04
2023-05-16T05:10:47.056Z,40.04
2023-05-16T05:11:47.120Z,40.01
2023-05-16T05:12:47.125Z,40.02
2023-05-16T05:13:47.161Z,40.04
2023-05-16T05:14:47.211Z,39.98
2023-05-16T05:15:47.253Z,40.02
2023-05-16T05:16:47.275Z,40.08
2023-05-16T05:17:47.416Z,40.02
2023-05-16T05:18:47.406Z,40.03
2023-05-16T05:19:47.372Z,40.06
2023-05-16T05:20:47.394Z,40.06
2023-05-16T05:21:47.445Z,40.05
2023-05-16T05:22:47.453Z,40.05
2023-05-16T05:23:47.518Z,40.05
2023-05-16T05:24:47.540Z,40.06
2023-05-16T05:25:47.567Z,40.07
2023-05-16T05:26:47.617Z,40.10
2023-05-16T05:27:47.637Z,40.12
2023-05-16T05:29:00.947Z,40.14
2023-05-16T05:29:48.665Z,40.12
2023-05-16T05:30:47.697Z,40.17
2023-05-16T05:31:47.763Z,40.17
2023-05-16T05:32:47.681Z,40.22
2023-05-16T05:33:47.657Z,40.23
2023-05-16T05:34:47.635Z,40.26
2023-05-16T05:35:47.617Z,40.30
2023-05-16T05:36:47.634Z,40.66
2023-05-16T05:37:47.647Z,41.06
2023-05-16T05:38:47.673Z,41.19
2023-05-16T05:39:47.601Z,40.85
2023-05-16T05:40:47.570Z,41.09
2023-05-16T05:41:47.601Z,41.28
2023-05-16T05:42:47.562Z,41.70
2023-05-16T05:43:47.582Z,41.54
2023-05-16T05:44:47.564Z,41.83
2023-05-16T05:45:47.601Z,41.97
2023-05-16T05:46:47.574Z,41.67
2023-05-16T05:47:47.561Z,41.35
2023-05-16T05:48:47.522Z,41.80
2023-05-16T05:49:47.591Z,41.76
2023-05-16T05:50:47.588Z,41.47
2023-05-16T05:51:47.642Z,41.31
2023-05-16T05:52:47.709Z,42.19
2023-05-16T05:53:47.739Z,41.99
2023-05-16T05:54:47.802Z,42.05
2023-05-16T05:55:47.870Z,42.43
2023-05-16T05:56:47.912Z,42.89
2023-05-16T05:57:47.975Z,43.10
2023-05-16T05:58:48.046Z,43.06
2023-05-16T05:59:48.045Z,42.97
2023-05-16T06:00:48.061Z,42.54
2023-05-16T06:01:48.159Z,42.57
2023-05-16T06:02:48.257Z,42.57
2023-05-16T06:03:48.255Z,42.43
2023-05-16T06:04:48.251Z,42.54
2023-05-16T06:05:48.382Z,42.62
2023-05-16T06:06:48.334Z,42.76
2023-05-16T06:07:48.310Z,42.75
2023-05-16T06:08:48.386Z,42.73
2023-05-16T06:09:48.389Z,42.83
2023-05-16T06:10:48.469Z,42.85
2023-05-16T06:11:48.474Z,42.79
2023-05-16T06:12:48.473Z,42.89
2023-05-16T06:13:48.495Z,42.90
2023-05-16T06:14:48.493Z,42.79
2023-05-16T06:15:48.566Z,42.69
2023-05-16T06:16:48.674Z,42.70
2023-05-16T06:17:48.738Z,42.77
2023-05-16T06:18:48.663Z,43.05
2023-05-16T06:19:48.645Z,43.04
2023-05-16T06:20:48.630Z,43.33
2023-05-16T06:21:48.641Z,43.19
2023-05-16T06:22:48.680Z,43.23
2023-05-16T06:23:48.641Z,43.06
2023-05-16T06:24:48.650Z,43.10
2023-05-16T06:25:48.709Z,43.10
2023-05-16T06:26:48.692Z,43.16
2023-05-16T06:27:48.664Z,43.13
2023-05-16T06:28:48.722Z,43.18
2023-05-16T06:29:48.708Z,43.15
2023-05-16T06:30:48.738Z,43.09
2023-05-16T06:31:48.776Z,43.10
2023-05-16T06:32:48.757Z,42.96
2023-05-16T06:33:48.712Z,42.92
2023-05-16T06:34:48.724Z,42.96
2023-05-16T06:35:48.745Z,43.19
2023-05-16T06:36:48.745Z,43.23
2023-05-16T06:37:48.771Z,43.17
2023-05-16T06:38:48.780Z,43.13
2023-05-16T06:39:48.844Z,43.29
2023-05-16T06:40:48.914Z,43.25
2023-05-16T06:41:48.987Z,43.24
2023-05-16T06:42:49.013Z,43.04
2023-05-16T06:43:49.113Z,42.98
2023-05-16T06:44:49.166Z,43.21
2023-05-16T06:45:49.211Z,43.56
2023-05-16T06:46:49.327Z,43.31
2023-05-16T06:47:49.369Z,43.09
2023-05-16T06:48:49.400Z,42.85
2023-05-16T06:49:49.469Z,43.24
2023-05-16T06:50:49.514Z,42.84
2023-05-16T06:51:49.491Z,42.83
2023-05-16T06:52:49.480Z,42.85
2023-05-16T06:53:49.493Z,42.77
2023-05-16T06:54:49.496Z,42.69
2023-05-16T06:55:49.531Z,43.00
2023-05-16T06:56:49.526Z,43.08
2023-05-16T06:57:49.569Z,43.00
2023-05-16T06:58:49.605Z,42.87
2023-05-16T06:59:49.542Z,42.81
2023-05-16T07:00:49.615Z,42.65
2023-05-16T07:01:49.664Z,42.60
2023-05-16T07:02:49.721Z,42.70
2023-05-16T07:03:49.660Z,42.82
2023-05-16T07:04:49.528Z,42.83
2023-05-16T07:05:49.562Z,42.70
2023-05-16T07:06:49.632Z,42.62
2023-05-16T07:07:49.632Z,42.58
2023-05-16T07:08:49.712Z,42.52
2023-05-16T07:09:49.773Z,42.55
2023-05-16T07:10:49.851Z,42.76
2023-05-16T07:11:49.929Z,42.71
2023-05-16T07:12:49.976Z,42.74
2023-05-16T07:13:50.013Z,42.64
2023-05-16T07:14:50.144Z,42.68
2023-05-16T07:15:50.110Z,42.55
2023-05-16T07:16:50.261Z,42.74
2023-05-16T07:17:50.254Z,42.63
2023-05-16T07:18:50.335Z,42.59
2023-05-16T07:19:50.978Z,42.57
2023-05-16T07:20:50.381Z,42.74
2023-05-16T07:21:50.433Z,42.62
2023-05-16T07:22:50.452Z,42.63
2023-05-16T07:23:50.517Z,42.53
2023-05-16T07:24:50.555Z,42.52
2023-05-16T07:25:50.597Z,42.42
2023-05-16T07:26:50.647Z,42.53
2023-05-16T07:27:50.660Z,42.55
2023-05-16T07:28:50.696Z,42.40
2023-05-16T07:29:50.749Z,42.51
2023-05-16T07:30:50.792Z,42.46
2023-05-16T07:31:50.863Z,42.59
2023-05-16T07:32:50.901Z,42.51
2023-05-16T07:33:50.911Z,42.44
2023-05-16T07:34:50.906Z,42.46
2023-05-16T07:35:51.469Z,42.40
2023-05-16T07:36:50.983Z,42.44
2023-05-16T07:37:50.980Z,42.60
2023-05-16T07:38:50.995Z,42.55
2023-05-16T07:39:51.027Z,42.52
2023-05-16T07:40:51.064Z,42.74
2023-05-16T07:41:51.070Z,42.58
2023-05-16T07:42:51.083Z,42.48
2023-05-16T07:43:51.084Z,42.50
2023-05-16T07:44:51.109Z,42.31
2023-05-16T07:45:51.187Z,42.36
2023-05-16T07:46:51.186Z,42.59
2023-05-16T07:47:51.210Z,42.64
2023-05-16T07:48:51.207Z,42.60
2023-05-16T07:49:51.208Z,42.70
2023-05-16T07:50:51.864Z,42.56
2023-05-16T07:51:51.265Z,42.63
2023-05-16T07:52:51.245Z,42.53
2023-05-16T07:53:51.316Z,42.56
2023-05-16T07:54:51.299Z,42.50
2023-05-16T07:55:51.329Z,42.60
2023-05-16T07:56:51.327Z,42.76
2023-05-16T07:57:51.360Z,42.86
2023-05-16T07:58:51.400Z,42.56
2023-05-16T07:59:51.472Z,42.68
2023-05-16T08:00:51.402Z,42.68
2023-05-16T08:01:51.369Z,42.74
2023-05-16T08:02:51.570Z,42.77
2023-05-16T08:03:51.465Z,42.88
2023-05-16T08:04:51.415Z,42.76
2023-05-16T08:05:51.458Z,42.74
2023-05-16T08:06:51.376Z,43.29
2023-05-16T08:07:51.384Z,42.97
2023-05-16T08:08:51.409Z,43.12
2023-05-16T08:09:51.417Z,43.15
2023-05-16T08:10:51.420Z,42.86
2023-05-16T08:11:51.417Z,42.76
2023-05-16T08:12:51.417Z,42.90
2023-05-16T08:13:51.430Z,42.63
2023-05-16T08:14:51.438Z,42.77
2023-05-16T08:15:51.501Z,42.68
2023-05-16T08:16:51.438Z,42.63
2023-05-16T08:17:51.560Z,42.64
2023-05-16T08:18:51.665Z,42.70
2023-05-16T08:19:51.565Z,42.74
2023-05-16T08:20:51.598Z,42.62
2023-05-16T08:21:51.662Z,42.62
2023-05-16T08:22:51.767Z,42.80
2023-05-16T08:23:51.764Z,42.95
2023-05-16T08:24:51.825Z,42.76
2023-05-16T08:25:51.883Z,42.70
2023-05-16T08:26:51.971Z,42.86
2023-05-16T08:27:52.005Z,42.85
2023-05-16T08:28:52.085Z,42.74
2023-05-16T08:29:52.174Z,42.95
2023-05-16T08:30:52.234Z,43.09
2023-05-16T08:31:52.401Z,43.10
2023-05-16T08:32:52.375Z,43.19
2023-05-16T08:33:52.353Z,42.87
2023-05-16T08:34:52.460Z,42.91
2023-05-16T08:35:52.496Z,42.96
2023-05-16T08:36:52.551Z,42.92
2023-05-16T08:37:52.623Z,42.95
2023-05-16T08:38:52.630Z,42.75
2023-05-16T08:39:52.704Z,42.85
2023-05-16T08:40:52.769Z,42.71
2023-05-16T08:41:52.838Z,42.63
2023-05-16T08:42:52.908Z,42.51
2023-05-16T08:43:52.953Z,42.51
2023-05-16T08:44:52.982Z,42.49
2023-05-16T08:45:53.012Z,42.63
2023-05-16T08:46:53.268Z,42.32
2023-05-16T08:47:53.076Z,42.46
2023-05-16T08:48:52.976Z,42.78
2023-05-16T08:49:53.013Z,42.80
2023-05-16T08:50:52.999Z,42.38
2023-05-16T08:51:52.967Z,41.98
2023-05-16T08:52:53.014Z,41.94
2023-05-16T08:53:53.081Z,41.75
2023-05-16T08:55:09.186Z,41.70
2023-05-16T08:55:54.038Z,41.50
2023-05-16T08:56:53.007Z,41.41
2023-05-16T08:57:53.018Z,41.31
2023-05-16T08:58:52.999Z,41.30
2023-05-16T08:59:52.950Z,41.24
2023-05-16T09:00:53.018Z,41.23
2023-05-16T09:01:52.939Z,41.14
2023-05-16T09:02:52.976Z,41.00
2023-05-16T09:03:53.001Z,41.05
2023-05-16T09:04:52.980Z,40.88
2023-05-16T09:05:52.928Z,40.76
2023-05-16T09:06:52.929Z,40.65
2023-05-16T09:07:52.914Z,40.54
2023-05-16T09:08:52.914Z,40.61
2023-05-16T09:09:52.892Z,40.52
2023-05-16T09:10:52.908Z,40.54
2023-05-16T09:11:52.906Z,40.41
2023-05-16T09:12:52.948Z,40.38
2023-05-16T09:13:52.994Z,40.29
2023-05-16T09:14:53.023Z,40.14
2023-05-16T09:15:53.094Z,40.03
2023-05-16T09:16:53.229Z,39.98
2023-05-16T09:17:53.262Z,39.79
2023-05-16T09:18:53.346Z,39.82
2023-05-16T09:19:53.308Z,39.80
2023-05-16T09:20:53.327Z,39.77
2023-05-16T09:21:53.380Z,39.71
2023-05-16T09:22:53.470Z,39.58
2023-05-16T09:23:53.476Z,39.54
2023-05-16T09:24:53.567Z,39.57
2023-05-16T09:25:53.636Z,39.46
2023-05-16T09:26:53.689Z,39.54
2023-05-16T09:27:53.727Z,39.53
2023-05-16T09:28:53.790Z,39.49
2023-05-16T09:29:53.798Z,39.39
2023-05-16T09:30:53.936Z,39.40
2023-05-16T09:31:53.915Z,39.39
2023-05-16T09:32:54.016Z,39.29
2023-05-16T09:33:54.021Z,39.30
2023-05-16T09:34:54.098Z,39.31
2023-05-16T09:35:55.034Z,39.33
2023-05-16T09:36:54.218Z,39.31
2023-05-16T09:37:54.268Z,39.34
2023-05-16T09:38:54.303Z,39.33
2023-05-16T09:39:54.390Z,39.33
2023-05-16T09:40:54.390Z,39.26
2023-05-16T09:41:54.456Z,39.20
2023-05-16T09:42:54.504Z,39.23
2023-05-16T09:43:54.587Z,39.39
2023-05-16T09:44:54.664Z,39.35
2023-05-16T09:45:54.740Z,39.45
2023-05-16T09:46:54.791Z,39.39
2023-05-16T09:47:54.785Z,39.44
2023-05-16T09:48:54.877Z,39.63
2023-05-16T09:49:54.923Z,39.64
2023-05-16T09:50:54.986Z,39.57
2023-05-16T09:51:55.013Z,39.61
2023-05-16T09:52:55.007Z,39.55
2023-05-16T09:53:55.068Z,39.72
2023-05-16T09:54:55.447Z,39.94
2023-05-16T09:55:55.105Z,40.13
2023-05-16T09:56:55.140Z,40.10
2023-05-16T09:57:55.154Z,40.23
2023-05-16T09:58:55.166Z,40.25
2023-05-16T09:59:55.189Z,40.28
2023-05-16T10:00:55.207Z,40.34
2023-05-16T10:01:55.229Z,40.36
2023-05-16T10:02:55.268Z,40.38
2023-05-16T10:03:55.391Z,40.41
2023-05-16T10:04:55.271Z,40.42
2023-05-16T10:05:55.212Z,40.54
2023-05-16T10:06:55.219Z,40.50
2023-05-16T10:07:55.243Z,40.56
2023-05-16T10:08:55.271Z,40.53
2023-05-16T10:09:55.301Z,40.59
2023-05-16T10:10:55.394Z,40.68
2023-05-16T10:11:55.392Z,40.72
2023-05-16T10:12:55.413Z,40.74
2023-05-16T10:13:55.467Z,40.82
2023-05-16T10:14:55.518Z,40.82
2023-05-16T10:15:55.652Z,40.86
2023-05-16T10:16:55.852Z,40.94
2023-05-16T10:17:55.791Z,40.94
2023-05-16T10:18:55.808Z,40.95
2023-05-16T10:19:55.836Z,40.97
2023-05-16T10:20:55.905Z,41.08
2023-05-16T10:21:55.988Z,41.11
2023-05-16T10:22:56.020Z,41.10
2023-05-16T10:23:56.068Z,41.13
2023-05-16T10:24:56.161Z,41.17
2023-05-16T10:25:56.196Z,41.26
2023-05-16T10:26:56.281Z,41.22
2023-05-16T10:27:56.292Z,41.28
2023-05-16T10:28:56.346Z,41.34
2023-05-16T10:29:56.411Z,41.38
2023-05-16T10:30:56.466Z,41.48
2023-05-16T10:31:56.552Z,41.48
2023-05-16T10:32:56.684Z,41.42
2023-05-16T10:33:56.627Z,41.55
2023-05-16T10:34:56.648Z,41.75
2023-05-16T10:35:56.707Z,41.55
2023-05-16T10:36:56.775Z,41.49
2023-05-16T10:37:56.834Z,41.74
2023-05-16T10:38:56.833Z,42.42
2023-05-16T10:39:56.888Z,42.51
2023-05-16T10:40:56.962Z,42.86
2023-05-16T10:41:57.011Z,42.90
2023-05-16T10:42:57.149Z,43.29
2023-05-16T10:43:57.086Z,43.33
2023-05-16T10:45:04.990Z,43.25
2023-05-16T10:45:58.120Z,43.79
2023-05-16T10:46:57.094Z,43.46
2023-05-16T10:47:57.120Z,43.51
2023-05-16T10:48:58.755Z,43.55
2023-05-16T10:49:57.077Z,44.59
2023-05-16T10:50:57.076Z,44.15
2023-05-16T10:51:57.071Z,43.93
2023-05-16T10:52:57.049Z,43.88
2023-05-16T10:53:57.019Z,44.11
2023-05-16T10:54:57.015Z,44.00
2023-05-16T10:55:57.041Z,44.09
2023-05-16T10:56:57.056Z,44.10
2023-05-16T10:57:57.019Z,44.31
2023-05-16T10:58:57.110Z,44.27
2023-05-16T10:59:58.460Z,44.24
2023-05-16T11:00:56.991Z,44.27
2023-05-16T11:01:57.516Z,44.52
2023-05-16T11:02:57.210Z,44.27
2023-05-16T11:03:57.116Z,44.56
2023-05-16T11:04:56.946Z,44.53
2023-05-16T11:05:56.966Z,44.79
2023-05-16T11:06:56.984Z,45.08
2023-05-16T11:07:56.950Z,44.98
2023-05-16T11:08:56.947Z,44.96
2023-05-16T11:09:56.961Z,45.87
2023-05-16T11:10:56.927Z,45.43
2023-05-16T11:11:56.957Z,45.12
2023-05-16T11:12:56.932Z,45.10
2023-05-16T11:13:56.886Z,45.23
2023-05-16T11:14:56.932Z,45.14
2023-05-16T11:15:56.942Z,45.12
2023-05-16T11:16:57.101Z,45.32
2023-05-16T11:17:57.047Z,45.26
2023-05-16T11:18:57.152Z,45.29
2023-05-16T11:19:57.098Z,45.32
2023-05-16T11:20:57.156Z,45.73
2023-05-16T11:21:57.185Z,45.56
2023-05-16T11:22:57.237Z,45.83
2023-05-16T11:23:57.279Z,45.58
2023-05-16T11:24:57.399Z,45.73
2023-05-16T11:25:57.408Z,45.59
2023-05-16T11:26:57.454Z,45.91
2023-05-16T11:27:57.512Z,45.89
2023-05-16T11:28:57.555Z,45.88
2023-05-16T11:29:58.680Z,45.44
2023-05-16T11:30:57.817Z,45.48
2023-05-16T11:31:57.838Z,45.27
2023-05-16T11:32:57.786Z,45.14
2023-05-16T11:33:57.738Z,45.04
2023-05-16T11:34:57.756Z,45.01
2023-05-16T11:36:11.173Z,44.98
2023-05-16T11:36:58.732Z,44.86
2023-05-16T11:37:57.743Z,44.89
2023-05-16T11:38:57.736Z,44.91
2023-05-16T11:39:57.843Z,44.83
2023-05-16T11:40:57.701Z,44.86
2023-05-16T11:41:57.739Z,44.87
2023-05-16T11:42:57.703Z,44.87
2023-05-16T11:43:57.722Z,44.84
2023-05-16T11:44:57.707Z,44.95
2023-05-16T11:45:57.691Z,44.93
2023-05-16T11:46:57.707Z,44.88
2023-05-16T11:47:57.774Z,44.90
2023-05-16T11:48:57.657Z,44.92
2023-05-16T11:49:57.660Z,44.93
2023-05-16T11:50:57.694Z,44.92
2023-05-16T11:51:57.651Z,44.97
2023-05-16T11:52:57.761Z,44.94
2023-05-16T11:53:57.812Z,44.98
2023-05-16T11:54:57.609Z,44.95
2023-05-16T11:55:57.901Z,44.94
2023-05-16T11:56:57.634Z,44.91
2023-05-16T11:57:57.616Z,44.85
2023-05-16T11:58:57.682Z,44.79
2023-05-16T11:59:57.738Z,44.89
2023-05-16T12:00:57.748Z,44.88
2023-05-16T12:01:57.800Z,44.83
2023-05-16T12:02:57.971Z,44.81
2023-05-16T12:03:58.263Z,44.81
2023-05-16T12:04:57.936Z,44.79
2023-05-16T12:05:57.964Z,44.76
2023-05-16T12:06:58.001Z,44.80
2023-05-16T12:07:58.039Z,44.83
2023-05-16T12:08:58.085Z,44.90
2023-05-16T12:09:58.117Z,44.82
2023-05-16T12:10:58.174Z,44.81
2023-05-16T12:11:58.189Z,44.76
2023-05-16T12:12:58.256Z,44.70
2023-05-16T12:13:58.297Z,44.74
2023-05-16T12:14:58.342Z,44.88
2023-05-16T12:15:58.380Z,44.82
2023-05-16T12:16:58.486Z,44.78
2023-05-16T12:17:58.469Z,44.77
2023-05-16T12:18:58.612Z,44.87
2023-05-16T12:19:58.556Z,44.80
2023-05-16T12:20:58.605Z,44.83
2023-05-16T12:21:58.640Z,45.10
2023-05-16T12:22:58.679Z,45.06
2023-05-16T12:23:58.737Z,45.03
2023-05-16T12:24:58.730Z,45.00
2023-05-16T12:25:58.765Z,44.94
2023-05-16T12:26:58.839Z,45.05
2023-05-16T12:27:58.834Z,45.07
2023-05-16T12:28:58.889Z,45.09
2023-05-16T12:29:58.961Z,45.02
2023-05-16T12:30:58.966Z,44.92
2023-05-16T12:31:59.070Z,44.94
2023-05-16T12:32:59.197Z,44.87
2023-05-16T12:33:59.106Z,44.85
2023-05-16T12:34:59.119Z,44.80
2023-05-16T12:35:59.177Z,44.84
2023-05-16T12:36:59.176Z,44.77
2023-05-16T12:37:59.208Z,44.84
2023-05-16T12:38:59.296Z,44.81
2023-05-16T12:39:59.299Z,44.78
2023-05-16T12:40:59.365Z,44.82
2023-05-16T12:41:59.383Z,44.85
2023-05-16T12:42:59.428Z,44.83
2023-05-16T12:43:59.475Z,44.78
2023-05-16T12:44:59.547Z,44.76
2023-05-16T12:45:59.589Z,44.78
2023-05-16T12:46:59.578Z,44.80
2023-05-16T12:47:59.655Z,44.87
2023-05-16T12:48:59.671Z,44.85
2023-05-16T12:49:59.718Z,44.97
2023-05-16T12:50:59.850Z,44.89
2023-05-16T12:51:59.814Z,44.90
2023-05-16T12:52:59.837Z,44.80